Canton Township, Michigan
Current Conditions -  °F | °C
As of 7:53 PM on Wednesday 17 Dec 2014 (Local Time) from KYIP Reporting Station
Overcast Overcast  
Wind Chill: 22°   Ceiling: 2700
Heat Index: 32°   Visibility: 10mi
Dew Point: 19°   Wind: 14mph
Humidity: 59%   Direction: 280°W
Pressure: 30.14"   Gusts: NA
Location:  42.2857°N, 83.4854°W
Report Text: KYIP 180053Z AUTO 28012KT 10SM OVC027 00/M07 A3014 RMK AO2 PK WND 29027/0012 SLP211 T00001072 TSNO
Loading
Personal Weather Stations






























Interactive Weather Map New forecast layout! Learn more

10-Day Weather Forecast

Advertisements
Track Severe Weather on mobile